This is the latest recevied weather packets stored in our database for station/object S57ZT-10. If no packets are shown the sender has not sent any weather packets the latest 10 day(s).
| Time | Temp. | Humidity | Pressure | Rain* | Wind** | Luminosity | Snow |
|---|---|---|---|---|---|---|---|
| 1778160880 | 25° C | 35% | 1013.3 hPa | - | - | - | - |
| 1778159067 | 25.56° C | 32% | 1013.5 hPa | - | - | - | - |
| 1778158219 | 26.11° C | 30% | 1013.4 hPa | - | - | - | - |
| 1778158187 | 26.11° C | 30% | 1013.4 hPa | - | - | - | - |
| 1778157459 | 27.22° C | 29% | 1013.5 hPa | - | - | - | - |
| 1778157349 | 27.22° C | 29% | 1013.5 hPa | - | - | - | - |
| 1778156814 | 28.33° C | 25% | 1013.3 hPa | - | - | - | - |
| 1778156753 | 28.33° C | 25% | 1013.3 hPa | - | - | - | - |
| 1778156509 | 28.89° C | 24% | 1013.5 hPa | - | - | - | - |
| 1778156017 | 28.89° C | 24% | 1013.5 hPa | - | - | - | - |
| 1778154569 | 28.33° C | 23% | 1013.6 hPa | - | - | - | - |
| 1778153700 | 29.44° C | 23% | 1013.6 hPa | - | - | - | - |
| 1778153666 | 29.44° C | 23% | 1013.6 hPa | - | - | - | - |
| 1778150099 | 27.78° C | 27% | 1014.3 hPa | - | - | - | - |
| 1778149163 | 27.78° C | 28% | 1014.4 hPa | - | - | - | - |
| 1778147378 | 28.33° C | 29% | 1014.7 hPa | - | - | - | - |
| 1778145573 | 26.67° C | 33% | 1014.9 hPa | - | - | - | - |
| 1778144708 | 26.11° C | 35% | 1015 hPa | - | - | - | - |
| 1778144667 | 26.11° C | 35% | 1015 hPa | - | - | - | - |
| 1778143767 | 25.56° C | 37% | 1014.9 hPa | - | - | - | - |
| 1778142873 | 23.89° C | 40% | 1015.2 hPa | - | - | - | - |
| 1778141987 | 23.33° C | 41% | 1015.1 hPa | - | - | - | - |
| 1778141099 | 22.78° C | 42% | 1015.1 hPa | - | - | - | - |
| 1778141066 | 22.78° C | 42% | 1015.1 hPa | - | - | - | - |
| 1778139262 | 22.78° C | 42% | 1015 hPa | - | - | - | - |
* Rain since midnight (hover to see other rain measurements)
** Current wind speed in m/s (hover to see current wind gust speed)